ヘネラル・イグナシオ・ペスケイラ・ガルシア国際空港の過去48時間の天気

ヘネラル・イグナシオ・ペスケイラ・ガルシア国際空港 (Hermosillo, Son.)

現在時刻: 9/25 14:47 MST (9/25 21:47 UTC) 以下の時間は現地時間です。

過去48時間のMETAR気象情報
時間 風向 風速(m/s) 視程 気温(℃) 湿度(%) 気圧(hPa) 天気現象
25 13:40 静穏 0 10km以上 39 28 1009.6
25 12:40 北東 2 10km以上 38 29 1012
25 11:40 南東 3 10km以上 37 31 1013
25 10:40 南東 2 10km以上 35 39 1012.2
25 09:40 静穏 0 10km以上 34 41 1014
25 08:40 静穏 0 10km以上 33 44 1014
25 07:40 静穏 0 10km以上 29 62 1012.5
25 06:40 静穏 0 10km以上 25 83 1013
25 05:41 静穏 0 10km以上 25 89 1013
25 04:45 西 1 10km以上 24 89 1011.4
25 02:48 東南東 1 10km以上 27 74 1012
25 01:42 東北東 2 10km以上 26 74 1011.9
25 00:58 南東 1 10km以上 27 70 1013
25 00:00 1 10km以上 29 58 1013
24 22:43 北西 2 10km以上 28 62 1012.2
24 21:40 西北西 1 10km以上 30 52 1014
24 20:40 西 2 10km以上 31 70 1014
24 19:40 西南西 2 10km以上 32 67 1012
24 18:40 西南西 3 10km以上 34 60 1012
24 17:40 2 10km以上 37 37 1012
24 16:40 静穏 0 10km以上 38 33 1010.8
24 15:40 南南西 3 10km以上 38 37 1012
24 14:40 西 2 10km以上 37 37 1012
24 13:40 北北西 2 10km以上 37 42 1012.6
24 12:40 静穏 0 10km以上 36 42 1015
MMHO 252040Z 00000KT 10SM SKC 39/17 A2984 RMK SLP096 57025 979 DSNT CB N
MMHO 251940Z 05004KT 10SM SKC 38/17 A2987 RMK HZY
MMHO 251840Z 14005KT 10SM SKC 37/17 A2990 RMK HZY
MMHO 251740Z 14004KT 10SM SKC 35/19 A2992 RMK SLP122 57003 975 HZY
MMHO 251640Z 00000KT 10SM SKC 34/19 A2993 RMK HZY
MMHO 251540Z 00000KT 10SM SKC 33/19 A2993 RMK ISOL CI HZY
MMHO 251440Z 00000KT 10SM SKC 29/21 A2992 RMK SLP125 52011 962 HZY
MMHO 251340Z 00000KT 10SM SKC 25/22 A2991 RMK ISOL AC HZY
MMHO 251241Z 00000KT 10SM FEW080 FEW200 25/23 A2990 RMK 8/038 FULYR
MMHO 251145Z 27002KT 10SM SKC 24/22 A2989 RMK SLP114 57005 960 ISOL AC/CI HZY
MMHO 250948Z 11002KT 10SM SKC 27/22 A2989 RMK ISOL AC/CI HZY
MMHO 250842Z 07003KT 10SM SKC 26/21 A2991 RMK SLP119 57003 955 HZY ISOL AC
MMHO 250758Z RTD 14002KT 10SM SKC 27/21 A2990 RMK ISOL AC/CI HZY
MMHO 250700Z RTD 18002KT 10SM SKC 29/20 A2991 RMK ISOL AC/CI HZY
MMHO 250543Z 32003KT 10SM SKC 28/20 A2992 RMK SLP122 52002 905 ISOL AC/CI HZY DSNT CN W
MMHO 250440Z 30002KT 10SM FEW200 30/19 A2993 RMK 8/003 DSNT CB AND LTGICC W ISOL AC HZY
MMHO 250340Z 28004KT 10SM FEW200 31/25 A2993 RMK 8/003 DSNT CB W ISOL AC
MMHO 250240Z 24004KT 10SM FEW200 32/25 A2991 RMK SLP120 52011 911 8/003 DSNT CB W ISOL AC
MMHO 250140Z 25005KT 10SM FEW200 34/25 A2989 RMK 8/003 DSNT CB N ISOL AC
MMHO 250040Z 18004KT 10SM SKC 37/20 A2987 RMK ISOL CU AC DSNT CB N
MMHO 242340Z 00000KT 10SM SKC 38/19 A2988 RMK SLP108 57017 925 DSNT CB W N ISOL CU
MMHO 242240Z 21005KT 10SM SKC 38/21 A2988 RMK DSNT CB W N ISOL CU
MMHO 242140Z 26003KT 10SM SKC 37/20 A2989 RMK DSNT CBPW N ISOL CU
MMHO 242040Z 34004KT 10SM SKC 37/22 A2993 RMK SLP126 57021 929 DSNT CB N ISOL CU AC
MMHO 241940Z 00000KT 10SM SKC 36/21 A2996 RMK ISOL CU AC HZY